sensor_id;sensor_type;location;lat;lon;timestamp;P1;durP1;ratioP1;P2;durP2;ratioP2
6517;SDS011;3292;48.944;9.240;2023-02-28T00:00:07;4.00;;;3.40;;
6517;SDS011;3292;48.944;9.240;2023-02-28T00:02:35;3.80;;;3.50;;
6517;SDS011;3292;48.944;9.240;2023-02-28T00:05:02;4.03;;;3.63;;
6517;SDS011;3292;48.944;9.240;2023-02-28T00:07:31;5.77;;;3.47;;
6517;SDS011;3292;48.944;9.240;2023-02-28T00:09:58;3.60;;;3.30;;
6517;SDS011;3292;48.944;9.240;2023-02-28T00:12:26;4.17;;;3.87;;
6517;SDS011;3292;48.944;9.240;2023-02-28T00:14:56;7.63;;;3.77;;
6517;SDS011;3292;48.944;9.240;2023-02-28T00:17:23;4.90;;;3.80;;
6517;SDS011;3292;48.944;9.240;2023-02-28T00:19:50;4.47;;;3.57;;
6517;SDS011;3292;48.944;9.240;2023-02-28T00:22:18;6.37;;;4.40;;
6517;SDS011;3292;48.944;9.240;2023-02-28T00:24:46;4.83;;;3.80;;
6517;SDS011;3292;48.944;9.240;2023-02-28T00:27:13;5.10;;;3.90;;
6517;SDS011;3292;48.944;9.240;2023-02-28T00:29:42;4.17;;;3.87;;
6517;SDS011;3292;48.944;9.240;2023-02-28T00:32:09;5.03;;;4.20;;
6517;SDS011;3292;48.944;9.240;2023-02-28T00:34:35;3.93;;;3.63;;
6517;SDS011;3292;48.944;9.240;2023-02-28T00:37:03;4.60;;;4.17;;
6517;SDS011;3292;48.944;9.240;2023-02-28T00:39:30;4.47;;;4.07;;
6517;SDS011;3292;48.944;9.240;2023-02-28T00:41:59;4.10;;;3.70;;
6517;SDS011;3292;48.944;9.240;2023-02-28T00:44:25;4.07;;;3.67;;
6517;SDS011;3292;48.944;9.240;2023-02-28T00:46:54;4.70;;;4.20;;
6517;SDS011;3292;48.944;9.240;2023-02-28T00:49:21;4.00;;;3.60;;
6517;SDS011;3292;48.944;9.240;2023-02-28T00:51:49;6.07;;;3.67;;
6517;SDS011;3292;48.944;9.240;2023-02-28T00:54:16;4.57;;;3.70;;
6517;SDS011;3292;48.944;9.240;2023-02-28T00:56:43;5.33;;;4.00;;
6517;SDS011;3292;48.944;9.240;2023-02-28T00:59:11;3.97;;;3.67;;
6517;SDS011;3292;48.944;9.240;2023-02-28T01:01:38;5.47;;;4.57;;
6517;SDS011;3292;48.944;9.240;2023-02-28T01:04:06;4.50;;;4.10;;
6517;SDS011;3292;48.944;9.240;2023-02-28T01:06:33;4.90;;;4.10;;
6517;SDS011;3292;48.944;9.240;2023-02-28T01:09:00;4.53;;;3.80;;
6517;SDS011;3292;48.944;9.240;2023-02-28T01:11:28;3.97;;;3.63;;
6517;SDS011;3292;48.944;9.240;2023-02-28T01:13:55;4.50;;;3.73;;
6517;SDS011;3292;48.944;9.240;2023-02-28T01:16:22;4.40;;;4.00;;
6517;SDS011;3292;48.944;9.240;2023-02-28T01:18:49;4.40;;;4.00;;
6517;SDS011;3292;48.944;9.240;2023-02-28T01:21:18;4.90;;;3.87;;
6517;SDS011;3292;48.944;9.240;2023-02-28T01:23:46;4.90;;;4.47;;
6517;SDS011;3292;48.944;9.240;2023-02-28T01:26:14;4.17;;;3.80;;
6517;SDS011;3292;48.944;9.240;2023-02-28T01:28:42;6.27;;;4.10;;
6517;SDS011;3292;48.944;9.240;2023-02-28T01:31:09;5.40;;;4.13;;
6517;SDS011;3292;48.944;9.240;2023-02-28T01:33:37;5.37;;;4.37;;
6517;SDS011;3292;48.944;9.240;2023-02-28T01:36:05;4.73;;;4.30;;
6517;SDS011;3292;48.944;9.240;2023-02-28T01:38:34;4.80;;;4.37;;
6517;SDS011;3292;48.944;9.240;2023-02-28T01:41:01;4.70;;;4.20;;
6517;SDS011;3292;48.944;9.240;2023-02-28T01:43:29;4.20;;;3.80;;
6517;SDS011;3292;48.944;9.240;2023-02-28T01:45:57;5.23;;;4.40;;
6517;SDS011;3292;48.944;9.240;2023-02-28T01:48:25;4.97;;;4.50;;
6517;SDS011;3292;48.944;9.240;2023-02-28T01:50:54;5.10;;;4.60;;
6517;SDS011;3292;48.944;9.240;2023-02-28T01:53:26;4.43;;;4.00;;
6517;SDS011;3292;48.944;9.240;2023-02-28T01:55:59;4.87;;;4.33;;
6517;SDS011;3292;48.944;9.240;2023-02-28T01:58:28;6.97;;;4.20;;
6517;SDS011;3292;48.944;9.240;2023-02-28T02:00:55;4.23;;;3.83;;
6517;SDS011;3292;48.944;9.240;2023-02-28T02:03:22;4.93;;;4.43;;
6517;SDS011;3292;48.944;9.240;2023-02-28T02:05:50;4.37;;;4.03;;
6517;SDS011;3292;48.944;9.240;2023-02-28T02:08:17;5.80;;;4.50;;
6517;SDS011;3292;48.944;9.240;2023-02-28T02:10:49;4.80;;;4.40;;
6517;SDS011;3292;48.944;9.240;2023-02-28T02:13:32;4.70;;;4.17;;
6517;SDS011;3292;48.944;9.240;2023-02-28T02:16:10;4.50;;;4.07;;
6517;SDS011;3292;48.944;9.240;2023-02-28T02:18:49;4.73;;;4.23;;
6517;SDS011;3292;48.944;9.240;2023-02-28T02:24:45;5.10;;;4.53;;
6517;SDS011;3292;48.944;9.240;2023-02-28T02:36:33;5.47;;;4.57;;
6517;SDS011;3292;48.944;9.240;2023-02-28T02:39:06;4.80;;;4.40;;
6517;SDS011;3292;48.944;9.240;2023-02-28T02:41:40;6.03;;;4.87;;
6517;SDS011;3292;48.944;9.240;2023-02-28T02:44:15;5.00;;;4.53;;
6517;SDS011;3292;48.944;9.240;2023-02-28T02:46:47;6.40;;;4.60;;
6517;SDS011;3292;48.944;9.240;2023-02-28T02:49:18;7.57;;;4.90;;
6517;SDS011;3292;48.944;9.240;2023-02-28T02:51:49;5.83;;;5.10;;
6517;SDS011;3292;48.944;9.240;2023-02-28T02:54:19;5.20;;;4.70;;
6517;SDS011;3292;48.944;9.240;2023-02-28T02:56:49;6.13;;;5.20;;
6517;SDS011;3292;48.944;9.240;2023-02-28T02:59:18;5.33;;;4.70;;
6517;SDS011;3292;48.944;9.240;2023-02-28T03:01:50;6.17;;;5.47;;
6517;SDS011;3292;48.944;9.240;2023-02-28T03:04:20;4.83;;;4.40;;
6517;SDS011;3292;48.944;9.240;2023-02-28T03:06:50;5.23;;;4.73;;
6517;SDS011;3292;48.944;9.240;2023-02-28T03:09:19;5.80;;;5.30;;
6517;SDS011;3292;48.944;9.240;2023-02-28T03:11:46;5.77;;;5.23;;
6517;SDS011;3292;48.944;9.240;2023-02-28T03:14:17;8.27;;;4.90;;
6517;SDS011;3292;48.944;9.240;2023-02-28T03:17:05;6.00;;;4.83;;
6517;SDS011;3292;48.944;9.240;2023-02-28T03:19:50;4.97;;;4.33;;
6517;SDS011;3292;48.944;9.240;2023-02-28T03:22:29;5.63;;;5.03;;
6517;SDS011;3292;48.944;9.240;2023-02-28T03:25:07;6.70;;;4.73;;
6517;SDS011;3292;48.944;9.240;2023-02-28T03:27:39;6.90;;;5.23;;
6517;SDS011;3292;48.944;9.240;2023-02-28T03:30:14;5.23;;;4.73;;
6517;SDS011;3292;48.944;9.240;2023-02-28T03:32:50;5.60;;;4.60;;
6517;SDS011;3292;48.944;9.240;2023-02-28T03:35:22;5.93;;;4.63;;
6517;SDS011;3292;48.944;9.240;2023-02-28T03:37:53;5.77;;;4.20;;
6517;SDS011;3292;48.944;9.240;2023-02-28T03:40:27;5.70;;;5.00;;
6517;SDS011;3292;48.944;9.240;2023-02-28T03:42:59;5.23;;;4.60;;
6517;SDS011;3292;48.944;9.240;2023-02-28T03:45:33;5.80;;;4.87;;
6517;SDS011;3292;48.944;9.240;2023-02-28T03:48:05;5.70;;;5.20;;
6517;SDS011;3292;48.944;9.240;2023-02-28T03:50:38;5.57;;;5.07;;
6517;SDS011;3292;48.944;9.240;2023-02-28T03:53:07;5.17;;;4.67;;
6517;SDS011;3292;48.944;9.240;2023-02-28T03:55:39;5.50;;;5.00;;
6517;SDS011;3292;48.944;9.240;2023-02-28T03:58:10;7.03;;;5.23;;
6517;SDS011;3292;48.944;9.240;2023-02-28T04:00:45;5.80;;;5.30;;
6517;SDS011;3292;48.944;9.240;2023-02-28T04:03:14;6.27;;;5.43;;
6517;SDS011;3292;48.944;9.240;2023-02-28T04:05:47;6.77;;;5.07;;
6517;SDS011;3292;48.944;9.240;2023-02-28T04:08:17;5.63;;;5.13;;
6517;SDS011;3292;48.944;9.240;2023-02-28T04:10:45;7.00;;;5.40;;
6517;SDS011;3292;48.944;9.240;2023-02-28T04:13:17;5.53;;;4.93;;
6517;SDS011;3292;48.944;9.240;2023-02-28T04:15:44;5.57;;;4.83;;
6517;SDS011;3292;48.944;9.240;2023-02-28T04:18:11;6.23;;;5.33;;
6517;SDS011;3292;48.944;9.240;2023-02-28T04:20:37;5.73;;;5.10;;
6517;SDS011;3292;48.944;9.240;2023-02-28T04:23:06;6.20;;;5.60;;
6517;SDS011;3292;48.944;9.240;2023-02-28T04:25:32;7.27;;;5.53;;
6517;SDS011;3292;48.944;9.240;2023-02-28T04:27:59;7.00;;;5.70;;
6517;SDS011;3292;48.944;9.240;2023-02-28T04:30:26;6.80;;;5.50;;
6517;SDS011;3292;48.944;9.240;2023-02-28T04:32:54;6.77;;;5.60;;
6517;SDS011;3292;48.944;9.240;2023-02-28T04:35:21;5.87;;;5.37;;
6517;SDS011;3292;48.944;9.240;2023-02-28T04:37:48;7.10;;;6.00;;
6517;SDS011;3292;48.944;9.240;2023-02-28T04:40:16;6.40;;;5.77;;
6517;SDS011;3292;48.944;9.240;2023-02-28T04:42:43;6.00;;;5.50;;
6517;SDS011;3292;48.944;9.240;2023-02-28T04:45:10;7.33;;;5.70;;
6517;SDS011;3292;48.944;9.240;2023-02-28T04:47:37;6.20;;;5.07;;
6517;SDS011;3292;48.944;9.240;2023-02-28T04:50:04;6.47;;;5.87;;
6517;SDS011;3292;48.944;9.240;2023-02-28T04:52:31;6.20;;;5.60;;
6517;SDS011;3292;48.944;9.240;2023-02-28T04:54:58;6.97;;;5.80;;
6517;SDS011;3292;48.944;9.240;2023-02-28T04:57:26;5.97;;;5.20;;
6517;SDS011;3292;48.944;9.240;2023-02-28T04:59:53;8.27;;;5.97;;
6517;SDS011;3292;48.944;9.240;2023-02-28T05:02:20;7.30;;;6.03;;
6517;SDS011;3292;48.944;9.240;2023-02-28T05:04:46;5.93;;;5.33;;
6517;SDS011;3292;48.944;9.240;2023-02-28T05:07:13;6.17;;;5.33;;
6517;SDS011;3292;48.944;9.240;2023-02-28T05:09:40;8.20;;;6.20;;
6517;SDS011;3292;48.944;9.240;2023-02-28T05:12:07;6.40;;;5.80;;
6517;SDS011;3292;48.944;9.240;2023-02-28T05:14:36;6.97;;;6.27;;
6517;SDS011;3292;48.944;9.240;2023-02-28T05:17:03;6.60;;;5.90;;
6517;SDS011;3292;48.944;9.240;2023-02-28T05:19:30;7.93;;;6.03;;
6517;SDS011;3292;48.944;9.240;2023-02-28T05:21:57;7.87;;;5.47;;
6517;SDS011;3292;48.944;9.240;2023-02-28T05:24:24;7.50;;;6.37;;
6517;SDS011;3292;48.944;9.240;2023-02-28T05:26:51;7.83;;;6.37;;
6517;SDS011;3292;48.944;9.240;2023-02-28T05:29:19;6.23;;;5.63;;
6517;SDS011;3292;48.944;9.240;2023-02-28T05:31:48;6.90;;;6.20;;
6517;SDS011;3292;48.944;9.240;2023-02-28T05:34:15;8.80;;;6.43;;
6517;SDS011;3292;48.944;9.240;2023-02-28T05:36:41;7.47;;;6.17;;
6517;SDS011;3292;48.944;9.240;2023-02-28T05:39:08;6.20;;;5.63;;
6517;SDS011;3292;48.944;9.240;2023-02-28T05:41:37;8.60;;;6.53;;
6517;SDS011;3292;48.944;9.240;2023-02-28T05:44:06;7.93;;;6.63;;
6517;SDS011;3292;48.944;9.240;2023-02-28T05:46:33;8.67;;;5.57;;
6517;SDS011;3292;48.944;9.240;2023-02-28T05:49:01;6.47;;;5.80;;
6517;SDS011;3292;48.944;9.240;2023-02-28T05:51:29;8.03;;;6.17;;
6517;SDS011;3292;48.944;9.240;2023-02-28T05:53:58;7.30;;;5.90;;
6517;SDS011;3292;48.944;9.240;2023-02-28T05:56:26;6.70;;;5.77;;
6517;SDS011;3292;48.944;9.240;2023-02-28T05:58:53;6.27;;;5.67;;
6517;SDS011;3292;48.944;9.240;2023-02-28T06:01:22;7.83;;;5.90;;
6517;SDS011;3292;48.944;9.240;2023-02-28T06:03:50;6.87;;;5.83;;
6517;SDS011;3292;48.944;9.240;2023-02-28T06:06:18;7.10;;;6.40;;
6517;SDS011;3292;48.944;9.240;2023-02-28T06:08:45;7.80;;;5.97;;
6517;SDS011;3292;48.944;9.240;2023-02-28T06:11:12;6.43;;;5.83;;
6517;SDS011;3292;48.944;9.240;2023-02-28T06:13:39;8.13;;;5.90;;
6517;SDS011;3292;48.944;9.240;2023-02-28T06:16:06;7.30;;;6.60;;
6517;SDS011;3292;48.944;9.240;2023-02-28T06:18:34;7.03;;;6.27;;
6517;SDS011;3292;48.944;9.240;2023-02-28T06:21:01;7.37;;;5.87;;
6517;SDS011;3292;48.944;9.240;2023-02-28T06:23:29;7.13;;;6.43;;
6517;SDS011;3292;48.944;9.240;2023-02-28T06:25:56;7.00;;;6.30;;
6517;SDS011;3292;48.944;9.240;2023-02-28T06:28:23;7.17;;;6.37;;
6517;SDS011;3292;48.944;9.240;2023-02-28T06:30:50;6.77;;;6.10;;
6517;SDS011;3292;48.944;9.240;2023-02-28T06:33:17;7.83;;;6.43;;
6517;SDS011;3292;48.944;9.240;2023-02-28T06:35:46;8.00;;;6.60;;
6517;SDS011;3292;48.944;9.240;2023-02-28T06:38:13;8.10;;;6.50;;
6517;SDS011;3292;48.944;9.240;2023-02-28T06:40:41;6.97;;;6.23;;
6517;SDS011;3292;48.944;9.240;2023-02-28T06:43:08;7.53;;;6.37;;
6517;SDS011;3292;48.944;9.240;2023-02-28T06:45:40;6.97;;;6.27;;
6517;SDS011;3292;48.944;9.240;2023-02-28T06:48:08;8.37;;;6.37;;
6517;SDS011;3292;48.944;9.240;2023-02-28T06:50:35;8.57;;;6.80;;
6517;SDS011;3292;48.944;9.240;2023-02-28T06:53:02;7.87;;;6.33;;
6517;SDS011;3292;48.944;9.240;2023-02-28T06:55:29;8.47;;;6.47;;
6517;SDS011;3292;48.944;9.240;2023-02-28T06:57:57;8.43;;;6.40;;
6517;SDS011;3292;48.944;9.240;2023-02-28T07:00:24;9.07;;;6.50;;
6517;SDS011;3292;48.944;9.240;2023-02-28T07:02:51;7.67;;;6.80;;
6517;SDS011;3292;48.944;9.240;2023-02-28T07:05:18;9.63;;;7.20;;
6517;SDS011;3292;48.944;9.240;2023-02-28T07:07:45;8.70;;;6.80;;
6517;SDS011;3292;48.944;9.240;2023-02-28T07:10:12;7.57;;;5.73;;
6517;SDS011;3292;48.944;9.240;2023-02-28T07:12:41;12.53;;;7.20;;
6517;SDS011;3292;48.944;9.240;2023-02-28T07:15:10;7.67;;;5.97;;
6517;SDS011;3292;48.944;9.240;2023-02-28T07:17:37;8.43;;;6.83;;
6517;SDS011;3292;48.944;9.240;2023-02-28T07:20:04;7.27;;;6.37;;
6517;SDS011;3292;48.944;9.240;2023-02-28T07:22:32;11.40;;;6.97;;
6517;SDS011;3292;48.944;9.240;2023-02-28T07:24:59;8.50;;;6.50;;
6517;SDS011;3292;48.944;9.240;2023-02-28T07:27:25;8.60;;;7.17;;
6517;SDS011;3292;48.944;9.240;2023-02-28T07:29:52;7.43;;;6.37;;
6517;SDS011;3292;48.944;9.240;2023-02-28T07:32:21;8.30;;;6.40;;
6517;SDS011;3292;48.944;9.240;2023-02-28T07:34:48;7.33;;;6.00;;
6517;SDS011;3292;48.944;9.240;2023-02-28T07:37:15;8.67;;;6.50;;
6517;SDS011;3292;48.944;9.240;2023-02-28T07:39:41;9.97;;;7.60;;
6517;SDS011;3292;48.944;9.240;2023-02-28T07:42:08;7.30;;;6.60;;
6517;SDS011;3292;48.944;9.240;2023-02-28T07:44:37;7.90;;;7.10;;
6517;SDS011;3292;48.944;9.240;2023-02-28T07:47:05;9.40;;;7.50;;
6517;SDS011;3292;48.944;9.240;2023-02-28T07:49:35;7.77;;;6.97;;
6517;SDS011;3292;48.944;9.240;2023-02-28T07:52:02;7.97;;;7.07;;
6517;SDS011;3292;48.944;9.240;2023-02-28T07:54:29;8.50;;;7.27;;
6517;SDS011;3292;48.944;9.240;2023-02-28T07:56:56;8.60;;;7.30;;
6517;SDS011;3292;48.944;9.240;2023-02-28T07:59:23;10.37;;;7.40;;
6517;SDS011;3292;48.944;9.240;2023-02-28T08:01:50;9.20;;;7.37;;
6517;SDS011;3292;48.944;9.240;2023-02-28T08:04:17;8.60;;;7.70;;
6517;SDS011;3292;48.944;9.240;2023-02-28T08:06:45;11.03;;;7.60;;
6517;SDS011;3292;48.944;9.240;2023-02-28T08:09:12;8.93;;;7.57;;
6517;SDS011;3292;48.944;9.240;2023-02-28T08:11:39;11.53;;;8.07;;
6517;SDS011;3292;48.944;9.240;2023-02-28T08:14:06;11.30;;;7.90;;
6517;SDS011;3292;48.944;9.240;2023-02-28T08:16:33;9.53;;;8.00;;
6517;SDS011;3292;48.944;9.240;2023-02-28T08:19:00;8.53;;;7.20;;
6517;SDS011;3292;48.944;9.240;2023-02-28T08:21:27;9.20;;;7.47;;
6517;SDS011;3292;48.944;9.240;2023-02-28T08:23:55;10.97;;;8.30;;
6517;SDS011;3292;48.944;9.240;2023-02-28T08:26:22;10.43;;;7.83;;
6517;SDS011;3292;48.944;9.240;2023-02-28T08:28:49;11.50;;;8.37;;
6517;SDS011;3292;48.944;9.240;2023-02-28T08:31:16;8.33;;;7.17;;
6517;SDS011;3292;48.944;9.240;2023-02-28T08:33:43;8.77;;;7.47;;
6517;SDS011;3292;48.944;9.240;2023-02-28T08:36:12;9.03;;;7.27;;
6517;SDS011;3292;48.944;9.240;2023-02-28T08:38:40;9.20;;;7.53;;
6517;SDS011;3292;48.944;9.240;2023-02-28T08:41:09;9.40;;;8.40;;
6517;SDS011;3292;48.944;9.240;2023-02-28T08:43:37;9.40;;;7.57;;
6517;SDS011;3292;48.944;9.240;2023-02-28T08:46:05;10.57;;;8.17;;
6517;SDS011;3292;48.944;9.240;2023-02-28T08:48:33;9.97;;;8.37;;
6517;SDS011;3292;48.944;9.240;2023-02-28T08:51:04;8.77;;;7.73;;
6517;SDS011;3292;48.944;9.240;2023-02-28T08:53:34;8.63;;;7.73;;
6517;SDS011;3292;48.944;9.240;2023-02-28T08:56:02;9.00;;;8.10;;
6517;SDS011;3292;48.944;9.240;2023-02-28T08:58:32;13.03;;;8.10;;
6517;SDS011;3292;48.944;9.240;2023-02-28T09:00:59;9.63;;;8.03;;
6517;SDS011;3292;48.944;9.240;2023-02-28T09:03:26;9.53;;;7.83;;
6517;SDS011;3292;48.944;9.240;2023-02-28T09:05:54;9.07;;;8.07;;
6517;SDS011;3292;48.944;9.240;2023-02-28T09:08:22;9.17;;;8.20;;
6517;SDS011;3292;48.944;9.240;2023-02-28T09:10:50;10.67;;;8.57;;
6517;SDS011;3292;48.944;9.240;2023-02-28T09:13:17;14.97;;;8.50;;
6517;SDS011;3292;48.944;9.240;2023-02-28T09:15:45;9.43;;;8.53;;
6517;SDS011;3292;48.944;9.240;2023-02-28T09:18:12;9.17;;;8.13;;
6517;SDS011;3292;48.944;9.240;2023-02-28T09:20:39;9.83;;;8.30;;
6517;SDS011;3292;48.944;9.240;2023-02-28T09:23:06;9.07;;;8.03;;
6517;SDS011;3292;48.944;9.240;2023-02-28T09:25:34;11.87;;;7.97;;
6517;SDS011;3292;48.944;9.240;2023-02-28T09:28:01;10.20;;;8.37;;
6517;SDS011;3292;48.944;9.240;2023-02-28T09:30:29;9.90;;;8.20;;
6517;SDS011;3292;48.944;9.240;2023-02-28T09:32:57;10.77;;;8.90;;
6517;SDS011;3292;48.944;9.240;2023-02-28T09:35:24;9.60;;;8.20;;
6517;SDS011;3292;48.944;9.240;2023-02-28T09:37:52;9.43;;;8.43;;
6517;SDS011;3292;48.944;9.240;2023-02-28T09:40:19;11.57;;;7.47;;
6517;SDS011;3292;48.944;9.240;2023-02-28T09:42:48;12.70;;;8.63;;
6517;SDS011;3292;48.944;9.240;2023-02-28T09:45:19;9.97;;;8.60;;
6517;SDS011;3292;48.944;9.240;2023-02-28T09:47:50;10.00;;;8.10;;
6517;SDS011;3292;48.944;9.240;2023-02-28T09:50:23;10.30;;;8.20;;
6517;SDS011;3292;48.944;9.240;2023-02-28T09:52:58;10.80;;;8.00;;
6517;SDS011;3292;48.944;9.240;2023-02-28T09:55:28;13.80;;;8.50;;
6517;SDS011;3292;48.944;9.240;2023-02-28T09:58:00;10.90;;;8.50;;
6517;SDS011;3292;48.944;9.240;2023-02-28T10:00:29;10.10;;;8.23;;
6517;SDS011;3292;48.944;9.240;2023-02-28T10:03:17;8.33;;;7.53;;
6517;SDS011;3292;48.944;9.240;2023-02-28T10:05:58;9.57;;;7.50;;
6517;SDS011;3292;48.944;9.240;2023-02-28T10:08:30;10.27;;;8.23;;
6517;SDS011;3292;48.944;9.240;2023-02-28T10:11:01;10.43;;;7.73;;
6517;SDS011;3292;48.944;9.240;2023-02-28T10:13:32;10.50;;;7.47;;
6517;SDS011;3292;48.944;9.240;2023-02-28T10:16:03;10.53;;;7.80;;
6517;SDS011;3292;48.944;9.240;2023-02-28T10:18:38;10.27;;;7.70;;
6517;SDS011;3292;48.944;9.240;2023-02-28T10:21:11;9.70;;;7.63;;
6517;SDS011;3292;48.944;9.240;2023-02-28T10:23:44;11.80;;;9.50;;
6517;SDS011;3292;48.944;9.240;2023-02-28T10:26:13;9.53;;;6.80;;
6517;SDS011;3292;48.944;9.240;2023-02-28T10:28:42;10.63;;;7.80;;
6517;SDS011;3292;48.944;9.240;2023-02-28T10:31:10;9.57;;;8.03;;
6517;SDS011;3292;48.944;9.240;2023-02-28T10:33:40;8.27;;;7.47;;
6517;SDS011;3292;48.944;9.240;2023-02-28T10:36:08;10.40;;;8.33;;
6517;SDS011;3292;48.944;9.240;2023-02-28T10:38:41;10.43;;;8.20;;
6517;SDS011;3292;48.944;9.240;2023-02-28T10:41:09;8.60;;;7.70;;
6517;SDS011;3292;48.944;9.240;2023-02-28T10:43:38;9.53;;;8.00;;
6517;SDS011;3292;48.944;9.240;2023-02-28T10:46:10;10.40;;;8.43;;
6517;SDS011;3292;48.944;9.240;2023-02-28T10:48:41;9.67;;;7.97;;
6517;SDS011;3292;48.944;9.240;2023-02-28T10:51:10;9.70;;;8.47;;
6517;SDS011;3292;48.944;9.240;2023-02-28T10:53:45;10.03;;;8.10;;
6517;SDS011;3292;48.944;9.240;2023-02-28T10:56:15;24.40;;;19.47;;
6517;SDS011;3292;48.944;9.240;2023-02-28T10:58:47;10.07;;;8.97;;
6517;SDS011;3292;48.944;9.240;2023-02-28T11:01:16;10.47;;;7.97;;
6517;SDS011;3292;48.944;9.240;2023-02-28T11:03:45;9.83;;;8.67;;
6517;SDS011;3292;48.944;9.240;2023-02-28T11:06:14;11.00;;;8.60;;
6517;SDS011;3292;48.944;9.240;2023-02-28T11:08:44;10.07;;;8.37;;
6517;SDS011;3292;48.944;9.240;2023-02-28T11:11:14;11.90;;;8.70;;
6517;SDS011;3292;48.944;9.240;2023-02-28T11:13:42;9.77;;;8.63;;
6517;SDS011;3292;48.944;9.240;2023-02-28T11:16:11;11.03;;;8.80;;
6517;SDS011;3292;48.944;9.240;2023-02-28T11:18:41;8.50;;;7.70;;
6517;SDS011;3292;48.944;9.240;2023-02-28T11:21:11;9.80;;;7.67;;
6517;SDS011;3292;48.944;9.240;2023-02-28T11:23:45;10.17;;;7.93;;
6517;SDS011;3292;48.944;9.240;2023-02-28T11:26:13;9.87;;;8.23;;
6517;SDS011;3292;48.944;9.240;2023-02-28T11:28:41;8.93;;;7.83;;
6517;SDS011;3292;48.944;9.240;2023-02-28T11:31:14;10.07;;;8.83;;
6517;SDS011;3292;48.944;9.240;2023-02-28T11:33:45;8.83;;;7.80;;
6517;SDS011;3292;48.944;9.240;2023-02-28T11:36:14;8.40;;;7.50;;
6517;SDS011;3292;48.944;9.240;2023-02-28T11:38:45;11.37;;;8.17;;
6517;SDS011;3292;48.944;9.240;2023-02-28T11:41:21;10.37;;;7.77;;
6517;SDS011;3292;48.944;9.240;2023-02-28T11:44:16;7.43;;;6.63;;
6517;SDS011;3292;48.944;9.240;2023-02-28T11:46:56;10.37;;;8.10;;
6517;SDS011;3292;48.944;9.240;2023-02-28T11:49:30;13.30;;;8.53;;
6517;SDS011;3292;48.944;9.240;2023-02-28T11:52:04;8.37;;;7.57;;
6517;SDS011;3292;48.944;9.240;2023-02-28T11:54:50;9.10;;;7.60;;
6517;SDS011;3292;48.944;9.240;2023-02-28T11:57:32;10.23;;;8.10;;
6517;SDS011;3292;48.944;9.240;2023-02-28T12:00:19;9.43;;;7.70;;
6517;SDS011;3292;48.944;9.240;2023-02-28T12:03:01;9.20;;;8.27;;
6517;SDS011;3292;48.944;9.240;2023-02-28T12:05:42;9.13;;;7.90;;
6517;SDS011;3292;48.944;9.240;2023-02-28T12:08:18;8.70;;;7.80;;
6517;SDS011;3292;48.944;9.240;2023-02-28T12:10:54;11.27;;;8.40;;
6517;SDS011;3292;48.944;9.240;2023-02-28T12:13:32;11.57;;;8.23;;
6517;SDS011;3292;48.944;9.240;2023-02-28T12:16:15;10.10;;;7.70;;
6517;SDS011;3292;48.944;9.240;2023-02-28T12:19:02;9.53;;;7.63;;
6517;SDS011;3292;48.944;9.240;2023-02-28T12:21:39;8.93;;;7.83;;
6517;SDS011;3292;48.944;9.240;2023-02-28T12:27:26;8.63;;;7.70;;
6517;SDS011;3292;48.944;9.240;2023-02-28T12:29:58;8.10;;;7.30;;
6517;SDS011;3292;48.944;9.240;2023-02-28T12:32:32;8.53;;;7.40;;
6517;SDS011;3292;48.944;9.240;2023-02-28T12:35:04;10.03;;;7.27;;
6517;SDS011;3292;48.944;9.240;2023-02-28T12:37:40;8.57;;;7.10;;
6517;SDS011;3292;48.944;9.240;2023-02-28T12:40:11;8.70;;;7.87;;
6517;SDS011;3292;48.944;9.240;2023-02-28T12:42:43;8.07;;;6.90;;
6517;SDS011;3292;48.944;9.240;2023-02-28T12:45:15;8.10;;;7.30;;
6517;SDS011;3292;48.944;9.240;2023-02-28T12:47:46;8.17;;;7.30;;
6517;SDS011;3292;48.944;9.240;2023-02-28T12:50:17;10.10;;;7.23;;
6517;SDS011;3292;48.944;9.240;2023-02-28T12:52:48;8.53;;;7.73;;
6517;SDS011;3292;48.944;9.240;2023-02-28T12:55:21;8.20;;;7.40;;
6517;SDS011;3292;48.944;9.240;2023-02-28T12:57:56;8.53;;;7.47;;
6517;SDS011;3292;48.944;9.240;2023-02-28T13:00:29;8.17;;;7.37;;
6517;SDS011;3292;48.944;9.240;2023-02-28T13:06:10;10.30;;;7.50;;
6517;SDS011;3292;48.944;9.240;2023-02-28T13:08:59;8.37;;;6.90;;
6517;SDS011;3292;48.944;9.240;2023-02-28T13:11:30;9.40;;;8.03;;
6517;SDS011;3292;48.944;9.240;2023-02-28T13:14:01;9.63;;;7.93;;
6517;SDS011;3292;48.944;9.240;2023-02-28T13:19:17;9.17;;;8.00;;
6517;SDS011;3292;48.944;9.240;2023-02-28T13:21:49;10.03;;;7.37;;
6517;SDS011;3292;48.944;9.240;2023-02-28T13:24:37;10.10;;;7.90;;
6517;SDS011;3292;48.944;9.240;2023-02-28T13:27:22;8.97;;;7.87;;
6517;SDS011;3292;48.944;9.240;2023-02-28T13:29:59;9.30;;;7.77;;
6517;SDS011;3292;48.944;9.240;2023-02-28T13:35:14;9.10;;;7.90;;
6517;SDS011;3292;48.944;9.240;2023-02-28T13:38:12;8.80;;;8.00;;
6517;SDS011;3292;48.944;9.240;2023-02-28T13:40:48;8.50;;;7.70;;
6517;SDS011;3292;48.944;9.240;2023-02-28T13:43:16;8.70;;;7.80;;
6517;SDS011;3292;48.944;9.240;2023-02-28T13:48:35;9.13;;;7.83;;
6517;SDS011;3292;48.944;9.240;2023-02-28T13:54:11;9.17;;;8.27;;
6517;SDS011;3292;48.944;9.240;2023-02-28T13:56:49;8.30;;;7.50;;
6517;SDS011;3292;48.944;9.240;2023-02-28T13:59:25;9.13;;;8.23;;
6517;SDS011;3292;48.944;9.240;2023-02-28T14:02:07;10.10;;;7.93;;
6517;SDS011;3292;48.944;9.240;2023-02-28T14:07:32;9.33;;;7.73;;
6517;SDS011;3292;48.944;9.240;2023-02-28T14:10:05;9.40;;;8.40;;
6517;SDS011;3292;48.944;9.240;2023-02-28T14:12:56;9.93;;;8.33;;
6517;SDS011;3292;48.944;9.240;2023-02-28T14:18:27;9.67;;;8.50;;
6517;SDS011;3292;48.944;9.240;2023-02-28T14:21:09;11.13;;;8.90;;
6517;SDS011;3292;48.944;9.240;2023-02-28T14:23:45;9.83;;;8.70;;
6517;SDS011;3292;48.944;9.240;2023-02-28T14:26:36;9.30;;;8.33;;
6517;SDS011;3292;48.944;9.240;2023-02-28T14:29:24;9.00;;;8.10;;
6517;SDS011;3292;48.944;9.240;2023-02-28T14:32:05;9.43;;;8.43;;
6517;SDS011;3292;48.944;9.240;2023-02-28T14:34:43;9.70;;;8.73;;
6517;SDS011;3292;48.944;9.240;2023-02-28T14:37:19;9.37;;;8.47;;
6517;SDS011;3292;48.944;9.240;2023-02-28T14:39:51;14.53;;;10.03;;
6517;SDS011;3292;48.944;9.240;2023-02-28T14:42:30;10.33;;;8.47;;
6517;SDS011;3292;48.944;9.240;2023-02-28T14:44:59;9.47;;;8.27;;
6517;SDS011;3292;48.944;9.240;2023-02-28T14:47:27;9.40;;;8.20;;
6517;SDS011;3292;48.944;9.240;2023-02-28T14:49:59;9.50;;;8.50;;
6517;SDS011;3292;48.944;9.240;2023-02-28T14:52:29;9.87;;;8.17;;
6517;SDS011;3292;48.944;9.240;2023-02-28T14:54:58;9.20;;;8.20;;
6517;SDS011;3292;48.944;9.240;2023-02-28T14:57:27;9.13;;;8.23;;
6517;SDS011;3292;48.944;9.240;2023-02-28T15:00:03;10.23;;;8.83;;
6517;SDS011;3292;48.944;9.240;2023-02-28T15:02:35;11.83;;;8.50;;
6517;SDS011;3292;48.944;9.240;2023-02-28T15:05:16;9.47;;;8.43;;
6517;SDS011;3292;48.944;9.240;2023-02-28T15:07:49;10.47;;;9.07;;
6517;SDS011;3292;48.944;9.240;2023-02-28T15:10:27;10.33;;;8.67;;
6517;SDS011;3292;48.944;9.240;2023-02-28T15:12:56;9.73;;;8.73;;
6517;SDS011;3292;48.944;9.240;2023-02-28T15:15:26;10.30;;;8.70;;
6517;SDS011;3292;48.944;9.240;2023-02-28T15:18:03;9.07;;;8.17;;
6517;SDS011;3292;48.944;9.240;2023-02-28T15:20:33;10.17;;;9.10;;
6517;SDS011;3292;48.944;9.240;2023-02-28T15:23:04;10.17;;;9.13;;
6517;SDS011;3292;48.944;9.240;2023-02-28T15:25:31;12.20;;;8.37;;
6517;SDS011;3292;48.944;9.240;2023-02-28T15:27:58;10.07;;;8.17;;
6517;SDS011;3292;48.944;9.240;2023-02-28T15:30:26;10.77;;;8.93;;
6517;SDS011;3292;48.944;9.240;2023-02-28T15:33:15;9.47;;;7.83;;
6517;SDS011;3292;48.944;9.240;2023-02-28T15:35:47;9.77;;;8.70;;
6517;SDS011;3292;48.944;9.240;2023-02-28T15:38:16;10.03;;;8.93;;
6517;SDS011;3292;48.944;9.240;2023-02-28T15:40:44;9.00;;;8.10;;
6517;SDS011;3292;48.944;9.240;2023-02-28T15:43:18;14.97;;;11.47;;
6517;SDS011;3292;48.944;9.240;2023-02-28T15:45:50;8.50;;;7.60;;
6517;SDS011;3292;48.944;9.240;2023-02-28T15:48:19;9.87;;;8.53;;
6517;SDS011;3292;48.944;9.240;2023-02-28T15:50:50;9.40;;;8.40;;
6517;SDS011;3292;48.944;9.240;2023-02-28T15:53:19;15.93;;;11.77;;
6517;SDS011;3292;48.944;9.240;2023-02-28T15:55:54;11.37;;;9.67;;
6517;SDS011;3292;48.944;9.240;2023-02-28T15:58:26;9.87;;;8.87;;
6517;SDS011;3292;48.944;9.240;2023-02-28T16:01:04;10.30;;;9.30;;
6517;SDS011;3292;48.944;9.240;2023-02-28T16:03:38;10.80;;;9.00;;
6517;SDS011;3292;48.944;9.240;2023-02-28T16:06:24;9.23;;;8.10;;
6517;SDS011;3292;48.944;9.240;2023-02-28T16:09:02;9.93;;;8.57;;